createdAt,value
2018-07-16T00:01:00.759Z,996.35
2018-07-16T00:02:07.241Z,996.35
2018-07-16T00:03:13.727Z,996.34
2018-07-16T00:04:20.196Z,996.38
2018-07-16T00:05:26.983Z,996.38
2018-07-16T00:06:33.653Z,996.35
2018-07-16T00:07:39.653Z,996.34
2018-07-16T00:08:46.130Z,996.35
2018-07-16T00:09:52.617Z,996.40
2018-07-16T00:10:59.586Z,996.36
2018-07-16T00:12:05.579Z,996.37
2018-07-16T00:13:12.056Z,996.38
2018-07-16T00:14:18.520Z,996.37
2018-07-16T00:15:25.003Z,996.37
2018-07-16T00:16:31.476Z,996.37
2018-07-16T00:17:37.954Z,996.37
2018-07-16T00:18:44.417Z,996.39
2018-07-16T00:19:50.889Z,996.36
2018-07-16T00:20:57.376Z,996.34
2018-07-16T00:22:03.839Z,996.36
2018-07-16T00:23:10.305Z,996.33
2018-07-16T00:24:16.774Z,996.31
2018-07-16T00:25:23.237Z,996.35
2018-07-16T00:26:29.698Z,996.35
2018-07-16T00:27:36.168Z,996.34
2018-07-16T00:28:42.623Z,996.38
2018-07-16T00:29:49.095Z,996.31
2018-07-16T00:30:55.545Z,996.34
2018-07-16T00:32:02.013Z,996.34
2018-07-16T00:33:08.483Z,996.32
2018-07-16T00:34:14.944Z,996.38
2018-07-16T00:35:21.397Z,996.38
2018-07-16T00:36:27.855Z,996.40
2018-07-16T00:37:34.326Z,996.40
2018-07-16T00:38:40.784Z,996.36
2018-07-16T00:39:47.244Z,996.34
2018-07-16T00:40:53.689Z,996.35
2018-07-16T00:42:00.154Z,996.32
2018-07-16T00:43:06.611Z,996.31
2018-07-16T00:44:13.560Z,996.30
2018-07-16T00:45:19.521Z,996.32
2018-07-16T00:46:25.968Z,996.28
2018-07-16T00:47:32.436Z,996.29
2018-07-16T00:48:38.887Z,996.29
2018-07-16T00:49:45.340Z,996.31
2018-07-16T00:50:51.900Z,996.28
2018-07-16T00:51:58.260Z,996.26
2018-07-16T00:53:04.725Z,996.25
2018-07-16T00:54:11.177Z,996.23
2018-07-16T00:55:17.633Z,996.22
2018-07-16T00:56:24.101Z,996.21
2018-07-16T00:57:30.561Z,996.21
2018-07-16T00:58:37.005Z,996.22
2018-07-16T00:59:43.471Z,996.23
2018-07-16T01:00:49.922Z,996.21
2018-07-16T01:01:56.388Z,996.18
2018-07-16T01:03:02.915Z,996.17
2018-07-16T01:04:09.330Z,996.14
2018-07-16T01:05:15.778Z,996.11
2018-07-16T01:06:22.245Z,996.12
2018-07-16T01:07:28.710Z,996.12
2018-07-16T01:08:35.176Z,996.07
2018-07-16T01:09:42.124Z,996.03
2018-07-16T01:10:48.099Z,996.05
2018-07-16T01:11:54.553Z,995.99
2018-07-16T01:13:01.031Z,995.99
2018-07-16T01:14:07.485Z,995.99
2018-07-16T01:15:13.965Z,995.94
2018-07-16T01:16:20.410Z,995.99
2018-07-16T01:17:26.880Z,995.92
2018-07-16T01:18:33.350Z,995.95
2018-07-16T01:19:39.897Z,995.94
2018-07-16T01:20:46.273Z,995.97
2018-07-16T01:21:52.734Z,995.96
2018-07-16T01:22:59.211Z,995.98
2018-07-16T01:24:05.671Z,995.92
2018-07-16T01:25:12.156Z,995.92
2018-07-16T01:26:18.629Z,995.90
2018-07-16T01:27:26.102Z,995.94
2018-07-16T01:28:31.583Z,995.91
2018-07-16T01:29:38.053Z,995.88
2018-07-16T01:30:44.530Z,995.87
2018-07-16T01:31:51.028Z,995.88
2018-07-16T01:32:57.511Z,995.83
2018-07-16T01:34:03.983Z,995.84
2018-07-16T01:35:10.480Z,995.82
2018-07-16T01:36:16.969Z,995.81
2018-07-16T01:37:23.451Z,995.82
2018-07-16T01:38:29.955Z,995.83
2018-07-16T01:39:36.445Z,995.79
2018-07-16T01:40:42.931Z,995.80
2018-07-16T01:41:49.933Z,995.76
2018-07-16T01:42:55.936Z,995.76
2018-07-16T01:44:02.411Z,995.78
2018-07-16T01:45:08.923Z,995.75
2018-07-16T01:46:15.412Z,995.77
2018-07-16T01:47:21.899Z,995.78
2018-07-16T01:48:28.408Z,995.79
2018-07-16T01:49:34.900Z,995.81
2018-07-16T01:50:41.384Z,995.76
2018-07-16T01:51:47.882Z,995.76
2018-07-16T01:52:54.385Z,995.78
2018-07-16T01:54:00.885Z,995.75
2018-07-16T01:55:07.375Z,995.69
2018-07-16T01:56:13.874Z,995.67
2018-07-16T01:57:20.369Z,995.71
2018-07-16T01:58:26.873Z,995.73
2018-07-16T01:59:33.352Z,995.73
2018-07-16T02:00:39.852Z,995.77
2018-07-16T02:01:46.367Z,995.80
2018-07-16T02:02:52.856Z,995.76
2018-07-16T02:03:59.344Z,995.78
2018-07-16T02:05:05.848Z,995.75
2018-07-16T02:06:12.349Z,995.81
2018-07-16T02:07:18.847Z,995.83
2018-07-16T02:08:25.361Z,995.83
2018-07-16T02:09:31.857Z,995.88
2018-07-16T02:10:38.351Z,995.85
2018-07-16T02:11:44.862Z,995.89
2018-07-16T02:12:51.366Z,995.87
2018-07-16T02:13:57.863Z,995.88
2018-07-16T02:15:04.375Z,995.87
2018-07-16T02:16:10.859Z,995.89
2018-07-16T02:17:17.359Z,995.96
2018-07-16T02:18:23.862Z,995.90
2018-07-16T02:19:30.365Z,995.89
2018-07-16T02:20:36.859Z,995.87
2018-07-16T02:21:43.841Z,995.90
2018-07-16T02:22:49.857Z,995.92
2018-07-16T02:23:56.356Z,996.00
2018-07-16T02:25:02.852Z,995.94
2018-07-16T02:26:09.333Z,995.98
2018-07-16T02:27:15.814Z,995.97
2018-07-16T02:28:22.311Z,995.99
2018-07-16T02:29:28.895Z,995.98
2018-07-16T02:30:35.280Z,996.04
2018-07-16T02:31:41.759Z,996.01
2018-07-16T02:32:48.245Z,996.04
2018-07-16T02:33:54.740Z,996.02
2018-07-16T02:35:01.219Z,996.10
2018-07-16T02:36:07.689Z,996.08
2018-07-16T02:37:14.170Z,996.08
2018-07-16T02:38:20.666Z,996.11
2018-07-16T02:39:27.149Z,996.14
2018-07-16T02:40:33.643Z,996.16
2018-07-16T02:41:40.106Z,996.17
2018-07-16T02:42:46.585Z,996.18
2018-07-16T02:43:53.072Z,996.17
2018-07-16T02:44:59.545Z,996.16
2018-07-16T02:46:06.022Z,996.15
2018-07-16T02:47:12.508Z,996.11
2018-07-16T02:48:18.997Z,996.11
2018-07-16T02:49:25.491Z,996.12
2018-07-16T02:50:31.944Z,996.11
2018-07-16T02:51:38.415Z,996.08
2018-07-16T02:52:44.888Z,996.10
2018-07-16T02:53:51.371Z,996.17
2018-07-16T02:54:57.843Z,996.15
2018-07-16T02:56:04.308Z,996.16
2018-07-16T02:57:10.779Z,996.20
2018-07-16T02:58:17.262Z,996.16
2018-07-16T02:59:23.734Z,996.18
2018-07-16T03:00:30.201Z,996.17
2018-07-16T03:01:36.676Z,996.19
2018-07-16T03:02:43.154Z,996.16
2018-07-16T03:03:49.629Z,996.15
2018-07-16T03:04:56.080Z,996.13
2018-07-16T03:06:02.548Z,996.14
2018-07-16T03:07:09.031Z,996.17
2018-07-16T03:08:15.492Z,996.17
2018-07-16T03:09:21.964Z,996.21
2018-07-16T03:10:28.414Z,996.18
2018-07-16T03:11:34.874Z,996.20
2018-07-16T03:12:41.340Z,996.18
2018-07-16T03:13:47.825Z,996.17
2018-07-16T03:14:54.272Z,996.15
2018-07-16T03:16:00.755Z,996.16
2018-07-16T03:17:07.217Z,996.14
2018-07-16T03:18:13.828Z,996.17
2018-07-16T03:19:20.160Z,996.15
2018-07-16T03:20:26.616Z,996.13
2018-07-16T03:21:33.097Z,996.12
2018-07-16T03:22:39.556Z,996.12
2018-07-16T03:23:46.035Z,996.13
2018-07-16T03:24:52.499Z,996.14
2018-07-16T03:25:58.978Z,996.16
2018-07-16T03:27:05.441Z,996.11
2018-07-16T03:28:11.920Z,996.10
2018-07-16T03:29:18.401Z,996.09
2018-07-16T03:30:24.862Z,996.12
2018-07-16T03:31:31.342Z,996.07
2018-07-16T03:32:37.836Z,996.08
2018-07-16T03:33:44.308Z,996.14
2018-07-16T03:34:50.777Z,996.16
2018-07-16T03:35:57.260Z,996.15
2018-07-16T03:37:03.735Z,996.17
2018-07-16T03:38:10.228Z,996.16
2018-07-16T03:39:16.716Z,996.15
2018-07-16T03:40:23.208Z,996.14
2018-07-16T03:41:29.677Z,996.16
2018-07-16T03:42:36.675Z,996.15
2018-07-16T03:43:42.669Z,996.13
2018-07-16T03:44:49.144Z,996.17
2018-07-16T03:45:55.642Z,996.17
2018-07-16T03:47:02.127Z,996.12
2018-07-16T03:48:08.688Z,996.18
2018-07-16T03:49:15.121Z,996.15
2018-07-16T03:50:21.601Z,996.14
2018-07-16T03:51:28.095Z,996.16
2018-07-16T03:52:35.082Z,996.19
2018-07-16T03:53:41.084Z,996.22
2018-07-16T03:54:47.567Z,996.21
2018-07-16T03:55:54.120Z,996.20
2018-07-16T03:57:00.542Z,996.19
2018-07-16T03:58:07.038Z,996.18
2018-07-16T03:59:13.532Z,996.18
2018-07-16T04:00:20.013Z,996.22
2018-07-16T04:01:26.532Z,996.20
2018-07-16T04:02:32.980Z,996.15
2018-07-16T04:03:39.475Z,996.20
2018-07-16T04:04:45.963Z,996.16
2018-07-16T04:05:52.439Z,996.12
2018-07-16T04:06:58.921Z,996.12
2018-07-16T04:08:05.406Z,996.11
2018-07-16T04:09:11.904Z,996.08
2018-07-16T04:10:18.377Z,996.06
2018-07-16T04:11:24.851Z,996.04
2018-07-16T04:12:31.340Z,996.05
2018-07-16T04:13:38.339Z,996.03
2018-07-16T04:14:44.321Z,996.05
2018-07-16T04:15:50.907Z,996.01
2018-07-16T04:16:57.306Z,996.00
2018-07-16T04:18:03.799Z,996.02
2018-07-16T04:19:10.296Z,995.99
2018-07-16T04:20:16.778Z,995.95
2018-07-16T04:21:23.278Z,995.96
2018-07-16T04:22:29.760Z,995.99
2018-07-16T04:23:36.261Z,996.01
2018-07-16T04:24:42.764Z,995.97
2018-07-16T04:25:49.244Z,996.04
2018-07-16T04:26:55.748Z,996.01
2018-07-16T04:28:02.728Z,996.00
2018-07-16T04:29:08.746Z,995.97
2018-07-16T04:30:16.232Z,996.01
2018-07-16T04:31:21.734Z,996.01
2018-07-16T04:32:28.227Z,995.98
2018-07-16T04:33:34.730Z,995.99
2018-07-16T04:34:41.232Z,996.00
2018-07-16T04:35:47.727Z,996.00
2018-07-16T04:36:54.214Z,995.99
2018-07-16T04:38:00.724Z,996.01
2018-07-16T04:39:07.229Z,996.03
2018-07-16T04:40:13.719Z,996.01
2018-07-16T04:41:20.221Z,996.01
2018-07-16T04:42:27.218Z,996.00
2018-07-16T04:43:33.237Z,996.00
2018-07-16T04:44:39.744Z,995.97
2018-07-16T04:45:46.243Z,995.97
2018-07-16T04:46:52.750Z,996.01
2018-07-16T04:47:59.265Z,996.00
2018-07-16T04:49:05.773Z,995.98
2018-07-16T04:50:12.286Z,995.93
2018-07-16T04:51:18.898Z,995.94
2018-07-16T04:52:25.307Z,995.94
2018-07-16T04:53:31.835Z,995.90
2018-07-16T04:54:38.664Z,995.93
2018-07-16T04:55:44.879Z,995.93
2018-07-16T04:56:51.398Z,995.89
2018-07-16T04:57:57.924Z,995.94
2018-07-16T04:59:04.458Z,995.91
2018-07-16T05:00:10.983Z,995.88
2018-07-16T05:01:17.536Z,995.94
2018-07-16T05:02:24.060Z,995.91
2018-07-16T05:03:30.597Z,995.86
2018-07-16T05:04:37.145Z,995.86
2018-07-16T05:05:43.679Z,995.83
2018-07-16T05:06:50.223Z,995.79
2018-07-16T05:07:56.759Z,995.85
2018-07-16T05:09:03.318Z,995.85
2018-07-16T05:10:09.855Z,995.85
2018-07-16T05:11:16.397Z,995.86
2018-07-16T05:12:22.927Z,995.84
2018-07-16T05:13:29.488Z,995.89
2018-07-16T05:14:36.068Z,995.88
2018-07-16T05:15:42.566Z,995.87
2018-07-16T05:16:49.115Z,995.85
2018-07-16T05:17:55.651Z,995.85
2018-07-16T05:19:02.195Z,995.83
2018-07-16T05:20:08.751Z,995.84
2018-07-16T05:21:15.304Z,995.82
2018-07-16T05:22:21.844Z,995.85
2018-07-16T05:23:29.409Z,995.84
2018-07-16T05:24:34.973Z,995.84
2018-07-16T05:25:42.533Z,995.90
2018-07-16T05:26:49.093Z,995.85
2018-07-16T05:27:54.655Z,995.86
2018-07-16T05:29:01.220Z,995.85
2018-07-16T05:30:07.899Z,995.88
2018-07-16T05:31:14.368Z,995.89
2018-07-16T05:32:21.083Z,995.89
2018-07-16T05:33:27.494Z,995.91
2018-07-16T05:34:34.078Z,995.96
2018-07-16T05:35:40.650Z,995.90
2018-07-16T05:36:47.234Z,995.91
2018-07-16T05:37:53.920Z,995.93
2018-07-16T05:39:00.431Z,995.88
2018-07-16T05:40:07.006Z,995.92
2018-07-16T05:41:13.591Z,995.85
2018-07-16T05:42:20.168Z,995.86
2018-07-16T05:43:26.761Z,995.84
2018-07-16T05:44:33.902Z,995.84
2018-07-16T05:45:39.965Z,995.84
2018-07-16T05:46:46.548Z,995.83
2018-07-16T05:47:53.147Z,995.84
2018-07-16T05:48:59.747Z,995.86
2018-07-16T05:50:06.357Z,995.89
2018-07-16T05:51:12.957Z,995.91
2018-07-16T05:52:19.547Z,995.91
2018-07-16T05:53:27.159Z,995.90
2018-07-16T05:54:32.771Z,995.91
2018-07-16T05:55:39.380Z,995.93
2018-07-16T05:56:46.033Z,995.94
2018-07-16T05:57:52.603Z,995.95
2018-07-16T05:59:00.268Z,995.92
2018-07-16T06:00:05.916Z,995.95
2018-07-16T06:01:12.436Z,995.91
2018-07-16T06:02:19.036Z,995.88
2018-07-16T06:03:26.147Z,995.93
2018-07-16T06:04:32.267Z,995.91
2018-07-16T06:05:38.859Z,995.92
2018-07-16T06:06:45.458Z,995.93
2018-07-16T06:07:53.062Z,995.92
2018-07-16T06:08:58.659Z,995.92
2018-07-16T06:10:05.267Z,995.91
2018-07-16T06:11:11.869Z,995.92
2018-07-16T06:12:18.453Z,995.94
2018-07-16T06:13:25.055Z,995.96
2018-07-16T06:14:31.679Z,995.96
2018-07-16T06:15:38.238Z,995.97
2018-07-16T06:16:44.888Z,995.92
2018-07-16T06:17:51.438Z,995.95
2018-07-16T06:18:58.029Z,995.98
2018-07-16T06:20:04.624Z,995.96
2018-07-16T06:21:11.211Z,995.96
2018-07-16T06:22:17.802Z,995.97
2018-07-16T06:23:24.406Z,995.96
2018-07-16T06:24:30.996Z,996.02
2018-07-16T06:25:37.600Z,996.00
2018-07-16T06:26:44.196Z,996.03
2018-07-16T06:27:50.806Z,995.94
2018-07-16T06:28:57.406Z,995.97
2018-07-16T06:30:04.014Z,995.95
2018-07-16T06:31:10.607Z,995.95
2018-07-16T06:32:18.276Z,995.94
2018-07-16T06:33:23.826Z,995.95
2018-07-16T06:34:30.439Z,995.94
2018-07-16T06:35:37.063Z,995.91
2018-07-16T06:36:43.662Z,995.89
2018-07-16T06:37:50.280Z,995.93
2018-07-16T06:38:56.909Z,995.94
2018-07-16T06:40:03.721Z,995.94
2018-07-16T06:41:10.666Z,995.96
2018-07-16T06:42:16.774Z,995.96
2018-07-16T06:43:23.406Z,995.97
2018-07-16T06:44:30.030Z,995.96
2018-07-16T06:45:36.686Z,995.94
2018-07-16T06:46:43.329Z,995.93
2018-07-16T06:47:49.987Z,995.89
2018-07-16T06:48:56.613Z,995.93
2018-07-16T06:50:03.263Z,995.93
2018-07-16T06:51:09.905Z,995.89
2018-07-16T06:52:16.568Z,995.89
2018-07-16T06:53:23.226Z,995.86
2018-07-16T06:54:29.892Z,995.88
2018-07-16T06:55:36.560Z,995.86
2018-07-16T06:56:43.221Z,995.84
2018-07-16T06:57:49.891Z,995.83
2018-07-16T06:58:56.564Z,995.84
2018-07-16T07:00:03.255Z,995.83
2018-07-16T07:01:09.928Z,995.82
2018-07-16T07:02:17.128Z,995.85
2018-07-16T07:03:23.283Z,995.86
2018-07-16T07:04:29.974Z,995.84
2018-07-16T07:05:37.153Z,995.86
2018-07-16T07:06:43.342Z,995.85
2018-07-16T07:07:50.023Z,995.82
2018-07-16T07:08:56.722Z,995.86
2018-07-16T07:10:03.464Z,995.86
2018-07-16T07:11:10.122Z,995.85
2018-07-16T07:12:16.812Z,995.81
2018-07-16T07:13:23.524Z,995.80
2018-07-16T07:14:30.239Z,995.83
2018-07-16T07:15:36.957Z,995.85
2018-07-16T07:16:44.154Z,995.80
2018-07-16T07:17:50.370Z,995.83
2018-07-16T07:18:57.078Z,995.81
2018-07-16T07:20:03.789Z,995.83
2018-07-16T07:21:10.493Z,995.81
2018-07-16T07:22:17.203Z,995.81
2018-07-16T07:23:23.927Z,995.78
2018-07-16T07:24:30.629Z,995.78
2018-07-16T07:25:37.408Z,995.77
2018-07-16T07:26:44.057Z,995.80
2018-07-16T07:27:50.773Z,995.80
2018-07-16T07:28:57.483Z,995.79
2018-07-16T07:30:04.207Z,995.79
2018-07-16T07:31:10.924Z,995.78
2018-07-16T07:32:17.642Z,995.76
2018-07-16T07:33:24.352Z,995.78
2018-07-16T07:34:31.564Z,995.81
2018-07-16T07:35:37.794Z,995.77
2018-07-16T07:36:44.497Z,995.80
2018-07-16T07:37:51.211Z,995.80
2018-07-16T07:38:57.923Z,995.78
2018-07-16T07:40:04.639Z,995.80
2018-07-16T07:41:11.357Z,995.82
2018-07-16T07:42:18.049Z,995.80
2018-07-16T07:43:24.772Z,995.84
2018-07-16T07:44:31.469Z,995.80
2018-07-16T07:45:38.196Z,995.77
2018-07-16T07:46:44.931Z,995.82
2018-07-16T07:47:51.604Z,995.80
2018-07-16T07:48:58.321Z,995.78
2018-07-16T07:50:05.015Z,995.76
2018-07-16T07:51:11.729Z,995.75
2018-07-16T07:52:18.446Z,995.74
2018-07-16T07:53:25.141Z,995.78
2018-07-16T07:54:32.081Z,995.78
2018-07-16T07:55:38.579Z,995.79
2018-07-16T07:56:45.278Z,995.80
2018-07-16T07:57:51.996Z,995.83
2018-07-16T07:58:58.702Z,995.85
2018-07-16T08:00:05.410Z,995.81
2018-07-16T08:01:12.134Z,995.79
2018-07-16T08:02:18.858Z,995.78
2018-07-16T08:03:25.635Z,995.74
2018-07-16T08:04:32.306Z,995.78
2018-07-16T08:05:39.059Z,995.75
2018-07-16T08:06:45.915Z,995.72
2018-07-16T08:07:52.530Z,995.67
2018-07-16T08:08:59.288Z,995.68
2018-07-16T08:10:06.525Z,995.75
2018-07-16T08:11:12.810Z,995.69
2018-07-16T08:12:19.559Z,995.72
2018-07-16T08:13:26.349Z,995.75
2018-07-16T08:14:33.133Z,995.72
2018-07-16T08:15:39.939Z,995.68
2018-07-16T08:16:46.750Z,995.67
2018-07-16T08:17:53.552Z,995.65
2018-07-16T08:19:00.364Z,995.65
2018-07-16T08:20:07.181Z,995.59
2018-07-16T08:21:14.017Z,995.54
2018-07-16T08:22:20.820Z,995.61
2018-07-16T08:23:27.653Z,995.56
2018-07-16T08:24:34.473Z,995.55
2018-07-16T08:25:41.312Z,995.53
2018-07-16T08:26:48.141Z,995.50
2018-07-16T08:27:55.460Z,995.49
2018-07-16T08:29:01.900Z,995.49
2018-07-16T08:30:08.633Z,995.52
2018-07-16T08:31:15.474Z,995.47
2018-07-16T08:32:22.300Z,995.47
2018-07-16T08:33:29.191Z,995.50
2018-07-16T08:34:35.982Z,995.50
2018-07-16T08:35:42.820Z,995.48
2018-07-16T08:36:49.678Z,995.50
2018-07-16T08:37:56.503Z,995.50
2018-07-16T08:39:03.357Z,995.52
2018-07-16T08:40:10.184Z,995.49
2018-07-16T08:41:17.044Z,995.52
2018-07-16T08:42:23.872Z,995.46
2018-07-16T08:43:30.725Z,995.47
2018-07-16T08:44:37.592Z,995.49
2018-07-16T08:45:44.461Z,995.51
2018-07-16T08:46:51.319Z,995.51
2018-07-16T08:47:58.184Z,995.47
2018-07-16T08:49:05.030Z,995.46
2018-07-16T08:50:11.887Z,995.44
2018-07-16T08:51:18.750Z,995.45
2018-07-16T08:52:25.600Z,995.45
2018-07-16T08:53:32.449Z,995.48
2018-07-16T08:54:39.305Z,995.47
2018-07-16T08:55:46.171Z,995.46
2018-07-16T08:56:53.024Z,995.46
2018-07-16T08:57:59.870Z,995.41
2018-07-16T08:59:06.795Z,995.43
2018-07-16T09:00:13.581Z,995.42
2018-07-16T09:01:20.454Z,995.40
2018-07-16T09:02:27.302Z,995.41
2018-07-16T09:03:34.146Z,995.40
2018-07-16T09:04:41.007Z,995.40
2018-07-16T09:05:47.859Z,995.42
2018-07-16T09:06:54.707Z,995.42
2018-07-16T09:08:01.558Z,995.42
2018-07-16T09:09:08.435Z,995.42
2018-07-16T09:10:15.778Z,995.43
2018-07-16T09:11:22.205Z,995.48
2018-07-16T09:12:29.002Z,995.41
2018-07-16T09:13:35.965Z,995.42
2018-07-16T09:14:42.710Z,995.48
2018-07-16T09:15:49.566Z,995.44
2018-07-16T09:16:56.480Z,995.40
2018-07-16T09:18:03.234Z,995.46
2018-07-16T09:19:10.149Z,995.45
2018-07-16T09:20:16.898Z,995.47
2018-07-16T09:21:23.751Z,995.50
2018-07-16T09:22:30.574Z,995.50
2018-07-16T09:23:37.404Z,995.48
2018-07-16T09:24:44.235Z,995.51
2018-07-16T09:25:51.070Z,995.49
2018-07-16T09:26:57.923Z,995.49
2018-07-16T09:28:04.724Z,995.53
2018-07-16T09:29:11.539Z,995.45
2018-07-16T09:30:18.363Z,995.45
2018-07-16T09:31:25.199Z,995.46
2018-07-16T09:32:32.016Z,995.45
2018-07-16T09:33:38.823Z,995.43
2018-07-16T09:34:45.642Z,995.37
2018-07-16T09:35:52.452Z,995.44
2018-07-16T09:36:59.276Z,995.38
2018-07-16T09:38:06.083Z,995.38
2018-07-16T09:39:12.896Z,995.38
2018-07-16T09:40:19.701Z,995.40
2018-07-16T09:41:26.517Z,995.38
2018-07-16T09:42:33.319Z,995.37
2018-07-16T09:43:40.117Z,995.34
2018-07-16T09:44:46.927Z,995.36
2018-07-16T09:45:53.726Z,995.35
2018-07-16T09:47:00.530Z,995.34
2018-07-16T09:48:07.327Z,995.29
2018-07-16T09:49:14.126Z,995.30
2018-07-16T09:50:20.914Z,995.28
2018-07-16T09:51:27.723Z,995.26
2018-07-16T09:52:34.526Z,995.26
2018-07-16T09:53:41.312Z,995.23
2018-07-16T09:54:48.111Z,995.16
2018-07-16T09:55:55.905Z,995.21
2018-07-16T09:57:01.696Z,995.21
2018-07-16T09:58:08.486Z,995.14
2018-07-16T09:59:15.283Z,995.14
2018-07-16T10:00:22.055Z,995.11
2018-07-16T10:01:28.855Z,995.14
2018-07-16T10:02:36.116Z,995.11
2018-07-16T10:03:42.407Z,995.07
2018-07-16T10:04:49.188Z,995.12
2018-07-16T10:05:56.159Z,995.05
2018-07-16T10:07:02.753Z,995.11
2018-07-16T10:08:09.526Z,995.06
2018-07-16T10:09:16.320Z,995.07
2018-07-16T10:10:23.081Z,995.02
2018-07-16T10:11:29.852Z,994.97
2018-07-16T10:12:37.122Z,994.96
2018-07-16T10:13:43.382Z,994.95
2018-07-16T10:14:50.163Z,994.96
2018-07-16T10:15:56.923Z,994.94
2018-07-16T10:17:03.712Z,994.97
2018-07-16T10:18:10.504Z,994.92
2018-07-16T10:19:17.260Z,994.87
2018-07-16T10:20:24.125Z,994.91
2018-07-16T10:21:30.905Z,994.85
2018-07-16T10:22:37.579Z,994.83
2018-07-16T10:23:44.371Z,994.84
2018-07-16T10:24:51.136Z,994.79
2018-07-16T10:25:57.988Z,994.79
2018-07-16T10:27:04.690Z,994.80
2018-07-16T10:28:11.462Z,994.77
2018-07-16T10:29:18.253Z,994.73
2018-07-16T10:30:25.032Z,994.76
2018-07-16T10:31:31.824Z,994.71
2018-07-16T10:32:38.614Z,994.73
2018-07-16T10:33:45.404Z,994.74
2018-07-16T10:34:52.181Z,994.72
2018-07-16T10:35:58.969Z,994.67
2018-07-16T10:37:05.771Z,994.64
2018-07-16T10:38:13.047Z,994.65
2018-07-16T10:39:19.377Z,994.61
2018-07-16T10:40:26.161Z,994.63
2018-07-16T10:41:32.952Z,994.56
2018-07-16T10:42:39.751Z,994.63
2018-07-16T10:43:46.550Z,994.61
2018-07-16T10:44:53.345Z,994.59
2018-07-16T10:46:00.156Z,994.54
2018-07-16T10:47:06.982Z,994.58
2018-07-16T10:48:13.763Z,994.52
2018-07-16T10:49:20.570Z,994.47
2018-07-16T10:50:27.373Z,994.50
2018-07-16T10:51:34.196Z,994.49
2018-07-16T10:52:41.008Z,994.49
2018-07-16T10:53:47.803Z,994.44
2018-07-16T10:54:54.631Z,994.46
2018-07-16T10:56:01.439Z,994.42
2018-07-16T10:57:08.269Z,994.40
2018-07-16T10:58:15.075Z,994.41
2018-07-16T10:59:21.908Z,994.36
2018-07-16T11:00:28.720Z,994.39
2018-07-16T11:01:36.045Z,994.38
2018-07-16T11:02:42.381Z,994.38
2018-07-16T11:03:49.197Z,994.40
2018-07-16T11:04:56.033Z,994.41
2018-07-16T11:06:02.859Z,994.38
2018-07-16T11:07:09.707Z,994.35
2018-07-16T11:08:16.538Z,994.36
2018-07-16T11:09:23.403Z,994.30
2018-07-16T11:10:30.264Z,994.40
2018-07-16T11:11:37.172Z,994.39
2018-07-16T11:12:44.141Z,994.35
2018-07-16T11:13:51.690Z,994.30
2018-07-16T11:14:58.298Z,994.33
2018-07-16T11:16:05.469Z,994.31
2018-07-16T11:17:12.719Z,994.30
2018-07-16T11:18:20.017Z,994.22
2018-07-16T11:19:27.876Z,994.25
2018-07-16T11:20:34.767Z,994.28
2018-07-16T11:21:42.219Z,994.28
2018-07-16T11:22:49.708Z,994.32
2018-07-16T11:23:57.229Z,994.25
2018-07-16T11:25:04.912Z,994.26
2018-07-16T11:26:12.383Z,994.23
2018-07-16T11:27:20.021Z,994.25
2018-07-16T11:28:27.670Z,994.23
2018-07-16T11:29:35.357Z,994.24
2018-07-16T11:30:43.078Z,994.22
2018-07-16T11:31:50.947Z,994.19
2018-07-16T11:32:58.607Z,994.19
2018-07-16T11:34:06.380Z,994.19
2018-07-16T11:35:14.197Z,994.20
2018-07-16T11:36:22.035Z,994.16
2018-07-16T11:37:29.895Z,994.14
2018-07-16T11:38:37.758Z,994.12
2018-07-16T11:39:45.653Z,994.12
2018-07-16T11:40:53.578Z,994.10
2018-07-16T11:42:01.512Z,994.11
2018-07-16T11:43:09.459Z,994.10
2018-07-16T11:44:17.422Z,994.09
2018-07-16T11:45:25.416Z,994.07
2018-07-16T11:46:33.412Z,994.08
2018-07-16T11:47:41.446Z,994.13
2018-07-16T11:48:49.477Z,994.10
2018-07-16T11:49:57.508Z,994.09
2018-07-16T11:51:05.566Z,994.06
2018-07-16T11:52:13.688Z,994.02
2018-07-16T11:53:21.726Z,993.99
2018-07-16T11:54:29.819Z,993.97
2018-07-16T11:55:37.935Z,993.95
2018-07-16T11:56:46.050Z,993.97
2018-07-16T11:57:54.186Z,993.90
2018-07-16T11:59:02.345Z,993.89
2018-07-16T12:00:10.451Z,993.92
2018-07-16T12:01:18.606Z,993.88
2018-07-16T12:02:26.765Z,993.88
2018-07-16T12:03:35.004Z,993.86
2018-07-16T12:04:44.120Z,993.92
2018-07-16T12:05:52.314Z,993.89
2018-07-16T12:06:59.520Z,993.88
2018-07-16T12:08:07.740Z,993.86
2018-07-16T12:09:16.179Z,993.83
2018-07-16T12:10:24.216Z,993.79
2018-07-16T12:11:32.475Z,993.86
2018-07-16T12:12:40.921Z,993.86
2018-07-16T12:13:49.019Z,993.74
2018-07-16T12:14:57.295Z,993.67
2018-07-16T12:16:05.603Z,993.60
2018-07-16T12:17:13.944Z,993.63
2018-07-16T12:18:22.243Z,993.57
2018-07-16T12:19:30.600Z,993.62
2018-07-16T12:20:39.020Z,993.63
2018-07-16T12:21:47.331Z,993.68
2018-07-16T12:22:55.720Z,993.68
2018-07-16T12:24:04.091Z,993.73
2018-07-16T12:25:12.464Z,993.70
2018-07-16T12:26:20.912Z,993.63
2018-07-16T12:27:30.196Z,993.59
2018-07-16T12:28:37.520Z,993.61
2018-07-16T12:29:45.874Z,993.56
2018-07-16T12:30:54.253Z,993.50
2018-07-16T12:32:02.639Z,993.53
2018-07-16T12:33:11.037Z,993.48
2018-07-16T12:34:19.432Z,993.46
2018-07-16T12:35:27.859Z,993.47
2018-07-16T12:36:36.317Z,993.43
2018-07-16T12:37:44.757Z,993.46
2018-07-16T12:38:53.198Z,993.45
2018-07-16T12:40:01.624Z,993.43
2018-07-16T12:41:10.035Z,993.37
2018-07-16T12:42:18.457Z,993.39
2018-07-16T12:43:26.906Z,993.36
2018-07-16T12:44:35.356Z,993.31
2018-07-16T12:45:43.827Z,993.33
2018-07-16T12:46:52.310Z,993.30
2018-07-16T12:48:00.782Z,993.25
2018-07-16T12:49:09.204Z,993.27
2018-07-16T12:50:17.613Z,993.24
2018-07-16T12:51:26.041Z,993.20
2018-07-16T12:52:34.479Z,993.20
2018-07-16T12:53:42.924Z,993.13
2018-07-16T12:54:51.375Z,993.11
2018-07-16T12:55:59.837Z,993.01
2018-07-16T12:57:08.956Z,993.07
2018-07-16T12:58:16.909Z,993.06
2018-07-16T12:59:25.302Z,993.04
2018-07-16T13:00:33.818Z,993.02
2018-07-16T13:01:42.314Z,992.99
2018-07-16T13:02:50.921Z,992.99
2018-07-16T13:03:59.321Z,992.86
2018-07-16T13:05:07.833Z,992.86
2018-07-16T13:06:16.395Z,992.80
2018-07-16T13:07:25.360Z,992.80
2018-07-16T13:08:33.407Z,992.81
2018-07-16T13:09:41.912Z,992.72
2018-07-16T13:10:50.411Z,992.67
2018-07-16T13:11:59.402Z,992.65
2018-07-16T13:13:07.390Z,992.60
2018-07-16T13:14:15.863Z,992.56
2018-07-16T13:15:24.330Z,992.53
2018-07-16T13:16:32.899Z,992.57
2018-07-16T13:17:41.195Z,992.53
2018-07-16T13:18:49.510Z,992.56
2018-07-16T13:19:57.836Z,992.56
2018-07-16T13:21:06.176Z,992.55
2018-07-16T13:22:14.507Z,992.47
2018-07-16T13:23:23.054Z,992.48
2018-07-16T13:24:31.198Z,992.49
2018-07-16T13:25:39.536Z,992.45
2018-07-16T13:26:48.905Z,992.42
2018-07-16T13:27:56.254Z,992.44
2018-07-16T13:29:04.609Z,992.42
2018-07-16T13:30:12.980Z,992.43
2018-07-16T13:31:21.347Z,992.41
2018-07-16T13:32:29.732Z,992.44
2018-07-16T13:33:38.132Z,992.46
2018-07-16T13:34:46.521Z,992.44
2018-07-16T13:35:54.898Z,992.41
2018-07-16T13:37:03.302Z,992.45
2018-07-16T13:38:11.629Z,992.32
2018-07-16T13:39:20.116Z,992.39
2018-07-16T13:40:28.342Z,992.37
2018-07-16T13:41:36.711Z,992.37
2018-07-16T13:42:45.177Z,992.38
2018-07-16T13:43:53.465Z,992.38
2018-07-16T13:45:01.847Z,992.38
2018-07-16T13:46:10.230Z,992.36
2018-07-16T13:47:18.615Z,992.34
2018-07-16T13:48:27.020Z,992.39
2018-07-16T13:49:35.407Z,992.34
2018-07-16T13:50:44.310Z,992.36
2018-07-16T13:51:52.235Z,992.36
2018-07-16T13:53:00.656Z,992.33
2018-07-16T13:54:09.055Z,992.37
2018-07-16T13:55:17.487Z,992.36